.
WxDataArchive / Data Records for 2009-10-21
2009-10-20 October 2009 2009-10-22

Data Records for Wednesday, 21 October 2009

Time	Temp	Chill	HIndex	Humid	Dewpt	 Wind 	HiWind	WindDir	Rain 	Barom 
-----	----	-----	------	-----	-----	------	------	-------	-----	----- 
00:00	58.0	58.0	58.0	65	46.3	0	0	---	0.00	30.125 
00:05	57.6	57.6	57.6	66	46.3	0	0	---	0.00	30.125 
00:10	57.3	57.3	57.3	66	46.0	0	0	---	0.00	30.125 
00:15	57.0	57.0	57.0	67	46.2	0	0	---	0.00	30.123 
00:20	56.9	56.9	56.9	67	46.1	0	0	---	0.00	30.123 
00:25	56.6	56.6	56.6	68	46.2	0	0	---	0.00	30.123 
00:30	56.3	56.3	56.3	68	45.9	0	0	---	0.00	30.127 
00:35	56.0	56.0	56.0	69	46.0	0	0	---	0.00	30.127 
00:40	55.9	55.9	55.9	69	45.9	0	0	---	0.00	30.127 
00:45	55.6	55.6	55.6	70	46.0	0	0	---	0.00	30.131 
00:50	55.4	55.4	55.4	71	46.2	0	0	---	0.00	30.131 
00:55	55.3	55.3	55.3	71	46.1	0	0	---	0.00	30.131 
01:00	55.3	55.3	55.3	71	46.1	0	0	---	0.00	30.133 
01:05	55.3	55.3	55.3	71	46.1	0	1	248	0.00	30.133 
01:10	55.4	55.4	55.4	70	45.8	0	0	---	0.00	30.133 
01:15	55.6	55.6	55.6	69	45.6	0	1	248	0.00	30.134 
01:20	55.7	55.7	55.7	69	45.7	0	1	248	0.00	30.134 
01:25	55.9	55.9	55.9	68	45.5	0	1	248	0.00	30.134 
01:30	56.2	56.2	56.2	67	45.4	0	1	248	0.00	30.132 
01:35	56.3	56.3	56.3	66	45.1	0	2	248	0.00	30.132 
01:40	56.3	56.3	56.3	66	45.1	0	1	248	0.00	30.132 
01:45	56.5	56.5	56.5	66	45.3	0	4	248	0.00	30.134 
01:50	56.6	56.6	56.6	65	45.0	0	1	248	0.00	30.134 
01:55	56.7	56.7	56.7	65	45.1	0	2	248	0.00	30.134 
02:00	56.9	56.9	56.9	65	45.3	0	1	248	0.00	30.142 
02:05	56.9	56.9	56.9	65	45.3	0	1	248	0.00	30.142 
02:10	56.9	56.9	56.9	65	45.3	0	1	248	0.00	30.142 
02:15	56.9	56.9	56.9	65	45.3	0	1	248	0.00	30.140 
02:20	56.7	56.7	56.7	65	45.1	0	0	---	0.00	30.140 
02:25	56.5	56.5	56.5	65	44.9	0	1	248	0.00	30.140 
02:30	56.3	56.3	56.3	65	44.7	0	1	248	0.00	30.140 
02:35	56.2	56.2	56.2	65	44.6	0	1	248	0.00	30.140 
02:40	56.2	56.2	56.2	65	44.6	0	2	248	0.00	30.140 
02:45	56.2	56.2	56.2	65	44.6	0	2	248	0.00	30.136 
02:50	56.0	56.0	56.0	65	44.4	0	1	248	0.00	30.136 
02:55	55.7	55.7	55.7	66	44.5	0	1	248	0.00	30.136 
03:00	55.4	55.4	55.4	66	44.2	0	0	---	0.00	30.132 
03:05	55.3	55.3	55.3	66	44.1	0	1	248	0.00	30.132 
03:10	55.0	55.0	55.0	67	44.2	0	1	248	0.00	30.132 
03:15	54.8	54.8	54.8	67	44.1	0	2	248	0.00	30.131 
03:20	54.7	54.7	54.7	67	44.0	0	2	248	0.00	30.131 
03:25	54.7	54.7	54.7	67	44.0	0	2	248	0.00	30.131 
03:30	54.5	54.5	54.5	67	43.8	0	2	248	0.00	30.127 
03:35	54.5	54.5	54.5	67	43.8	0	2	248	0.00	30.127 
03:40	54.4	54.4	54.4	68	44.1	0	4	248	0.00	30.127 
03:45	54.2	54.2	54.2	68	43.9	0	3	248	0.00	30.127 
03:50	54.2	54.2	54.2	68	43.9	0	2	248	0.00	30.127 
03:55	54.1	54.1	54.1	68	43.8	0	1	248	0.00	30.127 
04:00	53.9	53.9	53.9	69	44.0	0	1	248	0.00	30.129 
04:05	53.9	53.9	53.9	69	44.0	0	2	248	0.00	30.129 
04:10	54.1	54.1	54.1	69	44.2	0	1	248	0.00	30.129 
04:15	54.1	54.1	54.1	68	43.8	0	2	248	0.00	30.131 
04:20	54.4	54.4	54.4	68	44.1	0	1	248	0.00	30.131 
04:25	54.4	54.4	54.4	67	43.7	0	2	248	0.00	30.131 
04:30	54.5	54.5	54.5	67	43.8	0	1	248	0.00	30.131 
04:35	54.5	54.5	54.5	67	43.8	0	1	248	0.00	30.131 
04:40	54.5	54.5	54.5	67	43.8	0	2	248	0.00	30.131 
04:45	54.5	54.5	54.5	67	43.8	0	2	248	0.00	30.132 
04:50	54.5	54.5	54.5	67	43.8	0	1	248	0.00	30.132 
04:55	54.5	54.5	54.5	67	43.8	0	1	248	0.00	30.132 
05:00	54.5	54.5	54.5	67	43.8	0	1	248	0.00	30.140 
05:05	54.5	54.5	54.5	67	43.8	0	3	248	0.00	30.140 
05:10	54.4	54.4	54.4	67	43.7	0	1	248	0.00	30.140 
05:15	54.2	54.2	54.2	67	43.5	0	0	---	0.00	30.142 
05:20	54.1	54.1	54.1	67	43.4	0	1	248	0.00	30.142 
05:25	54.1	54.1	54.1	68	43.8	0	1	248	0.00	30.142 
05:30	53.9	53.9	53.9	68	43.6	0	2	248	0.00	30.143 
05:35	53.9	53.9	53.9	68	43.6	0	1	248	0.00	30.143 
05:40	53.8	53.8	53.8	68	43.5	0	1	248	0.00	30.143 
05:45	53.6	53.6	53.6	69	43.7	0	1	248	0.00	30.146 
05:50	53.5	53.5	53.5	69	43.6	0	0	---	0.00	30.146 
05:55	53.3	53.3	53.3	69	43.4	0	0	---	0.00	30.146 
06:00	53.1	53.1	53.1	70	43.6	0	1	248	0.00	30.150 
06:05	52.9	52.9	52.9	70	43.4	0	0	---	0.00	30.150 
06:10	52.6	52.6	52.6	71	43.5	0	0	---	0.00	30.150 
06:15	52.5	52.5	52.5	71	43.4	0	0	---	0.00	30.151 
06:20	52.3	52.3	52.3	72	43.5	0	1	248	0.00	30.151 
06:25	52.2	52.2	52.2	72	43.4	0	0	---	0.00	30.151 
06:30	52.2	52.2	52.2	73	43.8	0	1	248	0.00	30.154 
06:35	52.0	52.0	52.0	73	43.6	0	0	---	0.00	30.154 
06:40	51.9	51.9	51.9	73	43.5	0	0	---	0.00	30.154 
06:45	51.7	51.7	51.7	73	43.3	0	0	---	0.00	30.156 
06:50	51.4	51.4	51.4	74	43.4	0	0	---	0.00	30.156 
06:55	51.1	51.1	51.1	74	43.1	0	0	---	0.00	30.156 
07:00	50.8	50.8	50.8	75	43.2	0	0	---	0.00	30.155 
07:05	50.5	50.5	50.5	76	43.2	0	0	---	0.00	30.155 
07:10	50.2	50.2	50.2	76	42.9	0	0	---	0.00	30.155 
07:15	49.9	49.9	49.9	77	43.0	0	0	---	0.00	30.158 
07:20	49.6	49.6	49.6	77	42.7	0	0	---	0.00	30.158 
07:25	49.4	49.4	49.4	78	42.8	0	0	---	0.00	30.158 
07:30	49.1	49.1	49.1	79	42.9	0	0	---	0.00	30.158 
07:35	48.8	48.8	48.8	79	42.6	0	0	---	0.00	30.158 
07:40	48.5	48.5	48.5	80	42.6	0	0	---	0.00	30.158 
07:45	48.2	48.2	48.2	81	42.6	0	0	---	0.00	30.160 
07:50	48.0	48.0	48.0	81	42.5	0	0	---	0.00	30.160 
07:55	47.9	47.9	47.9	81	42.4	0	0	---	0.00	30.160 
08:00	47.7	47.7	47.7	82	42.5	0	0	---	0.00	30.161 
08:05	47.6	47.6	47.6	82	42.4	0	0	---	0.00	30.161 
08:10	47.6	47.6	47.6	83	42.7	0	0	---	0.00	30.161 
08:15	47.6	47.6	47.6	83	42.7	0	0	---	0.00	30.163 
08:20	47.6	47.6	47.6	84	43.0	0	1	248	0.00	30.163 
08:25	47.7	47.7	47.7	83	42.8	0	0	---	0.00	30.163 
08:30	48.2	48.2	48.2	83	43.3	0	1	248	0.00	30.161 
08:35	48.5	48.5	48.5	83	43.6	0	0	---	0.00	30.161 
08:40	48.8	48.8	48.8	82	43.6	0	0	---	0.00	30.161 
08:45	49.1	49.1	49.1	82	43.8	0	0	---	0.00	30.166 
08:50	49.2	49.2	49.2	82	43.9	0	0	---	0.00	30.166 
08:55	49.4	49.4	49.4	81	43.8	0	0	---	0.00	30.166 
09:00	49.6	49.6	49.6	80	43.7	0	1	225	0.00	30.159 
09:05	49.9	49.9	49.9	80	44.0	0	1	225	0.00	30.159 
09:10	50.1	50.1	50.1	79	43.8	0	1	225	0.00	30.159 
09:15	50.4	50.4	50.4	78	43.8	0	1	225	0.00	30.155 
09:20	50.5	50.5	50.5	78	43.9	0	1	225	0.00	30.155 
09:25	50.8	50.8	50.8	77	43.9	0	2	225	0.00	30.155 
09:30	51.1	51.1	51.1	76	43.8	0	2	225	0.00	30.155 
09:35	51.6	51.6	51.6	75	43.9	0	3	225	0.00	30.155 
09:40	51.9	51.9	51.9	75	44.2	0	2	270	0.00	30.155 
09:45	52.3	52.3	52.3	74	44.3	0	1	270	0.00	30.152 
09:50	52.8	52.8	52.8	73	44.4	0	1	270	0.00	30.152 
09:55	53.3	53.3	53.3	72	44.5	1	3	270	0.00	30.152 
10:00	54.1	54.1	54.1	71	44.9	0	3	248	0.00	30.152 
10:05	54.7	54.7	54.7	69	44.7	1	4	248	0.00	30.152 
10:10	55.3	55.3	55.3	67	44.5	1	3	248	0.00	30.152 
10:15	56.0	56.0	56.0	65	44.4	1	3	248	0.00	30.152 
10:20	56.7	56.7	56.7	64	44.7	2	4	270	0.00	30.152 
10:25	57.5	57.5	57.5	64	45.4	1	3	292	0.00	30.152 
10:30	58.0	58.0	58.0	62	45.1	1	4	292	0.00	30.150 
10:35	58.4	58.4	58.4	62	45.4	1	3	248	0.00	30.150 
10:40	59.2	59.2	59.2	61	45.8	1	3	248	0.00	30.150 
10:45	59.6	59.6	59.6	60	45.7	2	4	248	0.00	30.147 
10:50	59.6	59.6	59.6	61	46.1	1	3	248	0.00	30.147 
10:55	59.9	59.9	59.9	60	46.0	1	3	292	0.00	30.147 
11:00	60.2	60.2	60.2	59	45.8	2	5	248	0.00	30.146 
11:05	60.4	60.4	60.4	60	46.4	2	4	248	0.00	30.146 
11:10	60.9	60.9	60.9	58	46.0	1	4	248	0.00	30.146 
11:15	61.0	61.0	61.0	62	47.9	2	4	248	0.00	30.138 
11:20	61.2	61.2	61.2	57	45.8	2	4	248	0.00	30.138 
11:25	61.3	61.3	61.3	58	46.4	1	4	248	0.00	30.138 
11:30	62.0	62.0	62.0	58	47.0	1	3	248	0.00	30.131 
11:35	62.6	62.6	62.6	58	47.6	1	4	248	0.00	30.131 
11:40	63.1	63.1	63.1	57	47.6	1	5	248	0.00	30.131 
11:45	63.4	63.4	63.4	55	46.9	1	3	315	0.00	30.129 
11:50	63.5	63.5	63.5	55	47.0	2	6	248	0.00	30.129 
11:55	63.7	63.7	63.7	56	47.7	2	5	248	0.00	30.129 
12:00	64.0	64.0	64.0	54	47.0	1	5	248	0.00	30.124 
12:05	64.2	64.2	64.2	55	47.7	2	5	270	0.00	30.124 
12:10	64.2	64.2	64.2	55	47.7	2	4	270	0.00	30.124 
12:15	64.5	64.5	64.5	56	48.4	2	5	248	0.00	30.119 
12:20	64.8	64.8	64.8	56	48.7	1	4	248	0.00	30.119 
12:25	65.2	65.2	65.2	54	48.1	1	5	248	0.00	30.119 
12:30	65.6	65.6	65.6	54	48.5	1	6	248	0.00	30.117 
12:35	65.8	65.8	65.8	54	48.7	2	4	248	0.00	30.117 
12:40	66.1	66.1	66.1	54	49.0	1	6	248	0.00	30.117 
12:45	66.3	66.3	66.3	53	48.6	2	6	248	0.00	30.112 
12:50	66.4	66.4	66.4	54	49.2	1	4	248	0.00	30.112 
12:55	66.6	66.6	66.6	53	48.9	2	5	248	0.00	30.112 
13:00	66.6	66.6	66.6	53	48.9	2	5	248	0.00	30.106 
13:05	66.8	66.8	66.8	53	49.1	2	4	292	0.00	30.106 
13:10	67.1	67.1	67.1	53	49.4	0	3	270	0.00	30.106 
13:15	67.4	67.4	67.4	55	50.7	1	4	248	0.00	30.099 
13:20	67.6	67.6	67.6	53	49.9	1	4	68	0.00	30.099 
13:25	67.4	67.4	67.4	52	49.2	2	5	248	0.00	30.099 
13:30	67.6	67.6	67.6	54	50.4	1	6	248	0.00	30.093 
13:35	67.8	67.8	67.8	53	50.0	1	4	292	0.00	30.093 
13:40	67.8	67.8	67.8	52	49.5	2	5	248	0.00	30.093 
13:45	67.8	67.8	67.8	52	49.5	1	3	248	0.00	30.084 
13:50	67.9	67.9	67.9	53	50.1	1	3	270	0.00	30.084 
13:55	68.3	68.3	68.3	52	50.0	0	2	270	0.00	30.084 
14:00	68.6	68.6	68.6	51	49.7	2	5	248	0.00	30.078 
14:05	68.6	68.6	68.6	50	49.2	2	5	248	0.00	30.078 
14:10	68.6	68.6	68.6	50	49.2	1	4	90	0.00	30.078 
14:15	68.4	68.4	68.4	49	48.5	2	6	248	0.00	30.072 
14:20	68.6	68.6	68.6	48	48.1	2	7	248	0.00	30.072 
14:25	68.8	68.8	68.8	48	48.3	1	6	225	0.00	30.072 
14:30	68.9	68.9	68.9	46	47.3	2	5	270	0.00	30.065 
14:35	68.9	68.9	68.9	46	47.3	2	4	248	0.00	30.065 
14:40	68.9	68.9	68.9	46	47.3	2	5	292	0.00	30.065 
14:45	69.1	69.1	69.1	45	46.9	2	5	248	0.00	30.063 
14:50	69.3	69.3	69.3	43	45.8	1	6	248	0.00	30.063 
14:55	69.4	69.4	69.4	43	45.9	2	7	270	0.00	30.063 
15:00	69.8	69.8	69.8	43	46.3	2	4	68	0.00	30.052 
15:05	70.1	70.1	70.1	38	43.3	2	6	270	0.00	30.052 
15:10	70.3	70.3	70.3	42	46.1	1	5	270	0.00	30.052 
15:15	70.1	70.1	70.1	39	44.0	1	5	248	0.00	30.049 
15:20	70.1	70.1	70.1	40	44.6	1	7	248	0.00	30.049 
15:25	69.9	69.9	69.9	37	42.4	1	7	45	0.00	30.049 
15:30	69.8	69.8	69.8	36	41.6	2	6	248	0.00	30.049 
15:35	69.8	69.8	69.8	34	40.2	2	5	270	0.00	30.049 
15:40	69.6	69.6	69.6	32	38.4	2	5	248	0.00	30.049 
15:45	69.8	69.8	69.8	32	38.6	1	4	248	0.00	30.048 
15:50	69.9	69.9	69.9	31	37.9	2	7	270	0.00	30.048 
15:55	69.9	69.9	69.9	29	36.2	1	6	315	0.00	30.048 
16:00	69.9	69.9	69.9	29	36.2	2	4	248	0.00	30.045 
16:05	69.8	69.8	69.8	28	35.2	3	9	248	0.00	30.045 
16:10	69.6	69.6	69.6	29	35.9	2	6	270	0.00	30.045 
16:15	69.4	69.4	69.4	29	35.8	2	6	248	0.00	30.046 
16:20	69.1	69.1	69.1	30	36.4	1	5	248	0.00	30.046 
16:25	69.1	69.1	69.1	31	37.2	1	3	248	0.00	30.046 
16:30	68.9	68.9	68.9	31	37.0	0	2	248	0.00	30.045 
16:35	68.9	68.9	68.9	32	37.8	1	3	248	0.00	30.045 
16:40	68.8	68.8	68.8	30	36.1	2	6	248	0.00	30.045 
16:45	68.9	68.9	68.9	33	38.6	1	3	248	0.00	30.037 
16:50	68.8	68.8	68.8	32	37.7	1	4	292	0.00	30.037 
16:55	68.6	68.6	68.6	31	36.8	2	7	248	0.00	30.037 
17:00	68.4	68.4	68.4	31	36.6	2	5	248	0.00	30.036 
17:05	68.3	68.3	68.3	34	38.8	0	3	225	0.00	30.036 
17:10	68.1	68.1	68.1	32	37.1	1	4	270	0.00	30.036 
17:15	67.9	67.9	67.9	32	36.9	2	5	248	0.00	30.040 
17:20	67.9	67.9	67.9	31	36.1	1	6	248	0.00	30.040 
17:25	67.9	67.9	67.9	31	36.1	1	3	248	0.00	30.040 
17:30	68.1	68.1	68.1	32	37.1	1	4	270	0.00	30.040 
17:35	67.9	67.9	67.9	33	37.7	1	4	270	0.00	30.040 
17:40	67.8	67.8	67.8	33	37.6	1	5	248	0.00	30.040 
17:45	67.6	67.6	67.6	33	37.5	1	4	270	0.00	30.036 
17:50	67.3	67.3	67.3	34	38.0	0	2	270	0.00	30.036 
17:55	66.9	66.9	66.9	36	39.1	0	2	248	0.00	30.036 
18:00	66.6	66.6	66.6	36	38.8	0	2	248	0.00	30.036 
18:05	66.3	66.3	66.3	38	39.9	0	3	248	0.00	30.036 
18:10	66.0	66.0	66.0	37	39.0	0	2	225	0.00	30.036 
18:15	65.8	65.8	65.8	38	39.5	0	1	225	0.00	30.039 
18:20	65.6	65.6	65.6	38	39.3	0	1	225	0.00	30.039 
18:25	65.3	65.3	65.3	39	39.7	0	2	225	0.00	30.039 
18:30	65.2	65.2	65.2	39	39.6	0	2	270	0.00	30.042 
18:35	65.0	65.0	65.0	39	39.4	0	2	270	0.00	30.042 
18:40	64.7	64.7	64.7	40	39.8	0	3	248	0.00	30.042 
18:45	64.3	64.3	64.3	41	40.1	0	2	248	0.00	30.043 
18:50	64.2	64.2	64.2	42	40.6	0	2	248	0.00	30.043 
18:55	63.9	63.9	63.9	43	41.0	0	1	248	0.00	30.043 
19:00	63.5	63.5	63.5	43	40.6	0	2	248	0.00	30.043 
19:05	63.2	63.2	63.2	43	40.3	0	2	248	0.00	30.043 
19:10	63.1	63.1	63.1	43	40.2	0	1	248	0.00	30.043 
19:15	62.9	62.9	62.9	43	40.1	0	3	248	0.00	30.047 
19:20	62.7	62.7	62.7	43	39.9	0	2	248	0.00	30.047 
19:25	62.7	62.7	62.7	43	39.9	0	2	248	0.00	30.047 
19:30	62.6	62.6	62.6	44	40.4	0	2	248	0.00	30.050 
19:35	62.4	62.4	62.4	45	40.8	0	3	248	0.00	30.050 
19:40	62.1	62.1	62.1	44	39.9	0	4	248	0.00	30.050 
19:45	62.0	62.0	62.0	44	39.8	0	2	248	0.00	30.046 
19:50	61.8	61.8	61.8	45	40.2	0	3	248	0.00	30.046 
19:55	61.6	61.6	61.6	46	40.6	0	1	248	0.00	30.046 
20:00	61.3	61.3	61.3	46	40.3	0	2	248	0.00	30.057 
20:05	61.0	61.0	61.0	47	40.6	0	1	248	0.00	30.057 
20:10	60.9	60.9	60.9	48	41.1	0	2	248	0.00	30.057 
20:15	60.5	60.5	60.5	49	41.2	0	2	248	0.00	30.049 
20:20	60.4	60.4	60.4	49	41.1	0	1	248	0.00	30.049 
20:25	60.2	60.2	60.2	50	41.5	0	1	248	0.00	30.049 
20:30	60.2	60.2	60.2	50	41.5	0	1	248	0.00	30.051 
20:35	60.2	60.2	60.2	50	41.5	0	2	248	0.00	30.051 
20:40	60.2	60.2	60.2	50	41.5	0	3	248	0.00	30.051 
20:45	60.4	60.4	60.4	50	41.7	1	3	248	0.00	30.054 
20:50	60.4	60.4	60.4	50	41.7	0	4	248	0.00	30.054 
20:55	60.4	60.4	60.4	51	42.2	1	4	270	0.00	30.054 
21:00	60.5	60.5	60.5	50	41.8	1	4	270	0.00	30.047 
21:05	60.7	60.7	60.7	50	41.9	1	3	270	0.00	30.047 
21:10	60.7	60.7	60.7	50	41.9	1	4	248	0.00	30.047 
21:15	60.5	60.5	60.5	50	41.8	0	2	248	0.00	30.042 
21:20	60.4	60.4	60.4	50	41.7	0	3	248	0.00	30.042 
21:25	60.2	60.2	60.2	51	42.0	1	5	248	0.00	30.042 
21:30	60.1	60.1	60.1	51	41.9	0	2	248	0.00	30.043 
21:35	59.8	59.8	59.8	52	42.1	1	3	248	0.00	30.043 
21:40	59.6	59.6	59.6	53	42.4	0	2	248	0.00	30.043 
21:45	59.3	59.3	59.3	53	42.2	1	3	225	0.00	30.044 
21:50	59.2	59.2	59.2	53	42.1	0	3	292	0.00	30.044 
21:55	59.0	59.0	59.0	53	41.9	0	2	270	0.00	30.044 
22:00	58.7	58.7	58.7	54	42.1	0	2	270	0.00	30.043 
22:05	58.6	58.6	58.6	54	42.0	0	1	270	0.00	30.043 
22:10	58.4	58.4	58.4	55	42.3	0	1	270	0.00	30.043 
22:15	58.4	58.4	58.4	55	42.3	1	3	270	0.00	30.039 
22:20	58.3	58.3	58.3	55	42.2	0	3	248	0.00	30.039 
22:25	58.3	58.3	58.3	55	42.2	0	2	248	0.00	30.039 
22:30	58.1	58.1	58.1	56	42.5	0	1	248	0.00	30.039 
22:35	58.0	58.0	58.0	56	42.4	0	2	248	0.00	30.039 
22:40	58.0	58.0	58.0	56	42.4	0	1	248	0.00	30.039 
22:45	57.8	57.8	57.8	57	42.7	0	1	248	0.00	30.038 
22:50	57.5	57.5	57.5	57	42.4	0	3	248	0.00	30.038 
22:55	57.5	57.5	57.5	58	42.8	0	4	248	0.00	30.038 
23:00	57.3	57.3	57.3	58	42.6	0	3	248	0.00	30.039 
23:05	57.2	57.2	57.2	58	42.6	1	3	248	0.00	30.039 
23:10	57.0	57.0	57.0	58	42.4	0	1	270	0.00	30.039 
23:15	57.0	57.0	57.0	59	42.8	0	2	270	0.00	30.032 
23:20	56.9	56.9	56.9	59	42.7	0	2	270	0.00	30.032 
23:25	56.6	56.6	56.6	60	42.9	0	1	270	0.00	30.032 
23:30	56.5	56.5	56.5	61	43.2	0	3	248	0.00	30.023 
23:35	56.2	56.2	56.2	61	42.9	0	2	248	0.00	30.023 
23:40	56.2	56.2	56.2	62	43.4	0	2	248	0.00	30.023 
23:45	56.0	56.0	56.0	62	43.2	0	1	248	0.00	30.020 
23:50	55.9	55.9	55.9	62	43.1	0	2	248	0.00	30.020 
23:55	55.9	55.9	55.9	62	43.1	0	3	248	0.00	30.020 

CoCoRaHS
IN-AL-39
A2 Web Hosting
Creative Commons License
GoDaddy
search engine by freefind advanced

loaded 2018-11-13 01:45:11 • last modified 2010-11-18 10:43:29
Privacy PolicyDisclaimer
• wx.awcolley.com is powered by PmWiki v.2002016 •
• all content (unless otherwise noted) © 2018 A W Colley